sensor_id;sensor_type;location;lat;lon;timestamp;P1;durP1;ratioP1;P2;durP2;ratioP2
34072;SDS011;20346;52.702;16.886;2022-12-18T00:01:45;62.08;;;23.47;;
34072;SDS011;20346;52.702;16.886;2022-12-18T00:04:31;61.35;;;24.43;;
34072;SDS011;20346;52.702;16.886;2022-12-18T00:07:16;55.52;;;22.02;;
34072;SDS011;20346;52.702;16.886;2022-12-18T00:10:01;58.67;;;22.13;;
34072;SDS011;20346;52.702;16.886;2022-12-18T00:12:47;68.55;;;23.70;;
34072;SDS011;20346;52.702;16.886;2022-12-18T00:15:35;62.53;;;23.37;;
34072;SDS011;20346;52.702;16.886;2022-12-18T00:18:22;56.33;;;22.22;;
34072;SDS011;20346;52.702;16.886;2022-12-18T00:21:08;63.60;;;23.02;;
34072;SDS011;20346;52.702;16.886;2022-12-18T00:23:55;56.92;;;21.93;;
34072;SDS011;20346;52.702;16.886;2022-12-18T00:26:41;64.77;;;23.30;;
34072;SDS011;20346;52.702;16.886;2022-12-18T00:29:26;62.65;;;22.37;;
34072;SDS011;20346;52.702;16.886;2022-12-18T00:32:11;55.17;;;22.07;;
34072;SDS011;20346;52.702;16.886;2022-12-18T00:34:56;47.60;;;20.68;;
34072;SDS011;20346;52.702;16.886;2022-12-18T00:37:41;50.53;;;21.43;;
34072;SDS011;20346;52.702;16.886;2022-12-18T00:40:26;54.40;;;20.55;;
34072;SDS011;20346;52.702;16.886;2022-12-18T00:43:11;55.12;;;20.70;;
34072;SDS011;20346;52.702;16.886;2022-12-18T00:45:56;55.07;;;20.13;;
34072;SDS011;20346;52.702;16.886;2022-12-18T00:48:41;54.05;;;20.88;;
34072;SDS011;20346;52.702;16.886;2022-12-18T00:51:26;62.43;;;22.60;;
34072;SDS011;20346;52.702;16.886;2022-12-18T00:54:11;57.08;;;21.70;;
34072;SDS011;20346;52.702;16.886;2022-12-18T00:56:56;53.80;;;20.85;;
34072;SDS011;20346;52.702;16.886;2022-12-18T00:59:41;57.73;;;22.13;;
34072;SDS011;20346;52.702;16.886;2022-12-18T01:02:26;50.97;;;21.17;;
34072;SDS011;20346;52.702;16.886;2022-12-18T01:05:12;60.13;;;22.40;;
34072;SDS011;20346;52.702;16.886;2022-12-18T01:07:58;55.95;;;22.02;;
34072;SDS011;20346;52.702;16.886;2022-12-18T01:10:43;60.78;;;22.42;;
34072;SDS011;20346;52.702;16.886;2022-12-18T01:13:27;52.35;;;22.37;;
34072;SDS011;20346;52.702;16.886;2022-12-18T01:16:13;57.50;;;22.42;;
34072;SDS011;20346;52.702;16.886;2022-12-18T01:19:00;58.17;;;21.20;;
34072;SDS011;20346;52.702;16.886;2022-12-18T01:21:45;45.30;;;18.52;;
34072;SDS011;20346;52.702;16.886;2022-12-18T01:24:30;57.47;;;20.33;;
34072;SDS011;20346;52.702;16.886;2022-12-18T01:27:15;48.98;;;19.60;;
34072;SDS011;20346;52.702;16.886;2022-12-18T01:30:00;43.23;;;17.87;;
34072;SDS011;20346;52.702;16.886;2022-12-18T01:32:45;53.98;;;19.77;;
34072;SDS011;20346;52.702;16.886;2022-12-18T01:35:30;50.30;;;20.23;;
34072;SDS011;20346;52.702;16.886;2022-12-18T01:38:15;50.30;;;19.62;;
34072;SDS011;20346;52.702;16.886;2022-12-18T01:41:01;45.90;;;19.55;;
34072;SDS011;20346;52.702;16.886;2022-12-18T01:43:54;53.50;;;21.37;;
34072;SDS011;20346;52.702;16.886;2022-12-18T01:46:40;48.85;;;19.77;;
34072;SDS011;20346;52.702;16.886;2022-12-18T01:49:25;44.70;;;18.75;;
34072;SDS011;20346;52.702;16.886;2022-12-18T01:52:10;46.40;;;19.05;;
34072;SDS011;20346;52.702;16.886;2022-12-18T01:54:55;49.30;;;18.87;;
34072;SDS011;20346;52.702;16.886;2022-12-18T01:57:41;42.95;;;18.62;;
34072;SDS011;20346;52.702;16.886;2022-12-18T02:00:26;37.83;;;16.05;;
34072;SDS011;20346;52.702;16.886;2022-12-18T02:03:12;47.38;;;19.23;;
34072;SDS011;20346;52.702;16.886;2022-12-18T02:09:18;55.17;;;19.95;;
34072;SDS011;20346;52.702;16.886;2022-12-18T02:12:21;47.03;;;19.92;;
34072;SDS011;20346;52.702;16.886;2022-12-18T02:18:21;49.67;;;20.08;;
34072;SDS011;20346;52.702;16.886;2022-12-18T02:24:38;40.78;;;18.12;;
34072;SDS011;20346;52.702;16.886;2022-12-18T02:27:31;34.90;;;14.18;;
34072;SDS011;20346;52.702;16.886;2022-12-18T02:30:18;43.95;;;16.50;;
34072;SDS011;20346;52.702;16.886;2022-12-18T02:33:04;44.58;;;17.40;;
34072;SDS011;20346;52.702;16.886;2022-12-18T02:35:51;41.80;;;18.25;;
34072;SDS011;20346;52.702;16.886;2022-12-18T02:38:38;48.80;;;18.25;;
34072;SDS011;20346;52.702;16.886;2022-12-18T02:41:25;42.65;;;17.37;;
34072;SDS011;20346;52.702;16.886;2022-12-18T02:44:12;41.15;;;16.67;;
34072;SDS011;20346;52.702;16.886;2022-12-18T02:46:57;38.95;;;16.07;;
34072;SDS011;20346;52.702;16.886;2022-12-18T02:59:06;45.88;;;18.30;;
34072;SDS011;20346;52.702;16.886;2022-12-18T03:05:09;41.45;;;17.60;;
34072;SDS011;20346;52.702;16.886;2022-12-18T03:07:58;47.35;;;18.30;;
34072;SDS011;20346;52.702;16.886;2022-12-18T03:10:52;43.90;;;17.12;;
34072;SDS011;20346;52.702;16.886;2022-12-18T03:13:50;44.67;;;18.00;;
34072;SDS011;20346;52.702;16.886;2022-12-18T03:16:40;59.18;;;19.57;;
34072;SDS011;20346;52.702;16.886;2022-12-18T03:19:27;41.63;;;18.35;;
34072;SDS011;20346;52.702;16.886;2022-12-18T03:22:15;43.60;;;16.82;;
34072;SDS011;20346;52.702;16.886;2022-12-18T03:25:02;44.95;;;18.00;;
34072;SDS011;20346;52.702;16.886;2022-12-18T03:27:51;44.88;;;18.07;;
34072;SDS011;20346;52.702;16.886;2022-12-18T03:30:40;48.15;;;17.12;;
34072;SDS011;20346;52.702;16.886;2022-12-18T03:33:38;48.25;;;18.48;;
34072;SDS011;20346;52.702;16.886;2022-12-18T03:36:26;47.17;;;18.42;;
34072;SDS011;20346;52.702;16.886;2022-12-18T03:39:14;54.50;;;19.92;;
34072;SDS011;20346;52.702;16.886;2022-12-18T03:42:02;49.40;;;18.92;;
34072;SDS011;20346;52.702;16.886;2022-12-18T03:45:12;47.50;;;18.65;;
34072;SDS011;20346;52.702;16.886;2022-12-18T03:48:18;49.90;;;19.15;;
34072;SDS011;20346;52.702;16.886;2022-12-18T03:51:34;57.33;;;20.73;;
34072;SDS011;20346;52.702;16.886;2022-12-18T03:54:29;53.08;;;19.42;;
34072;SDS011;20346;52.702;16.886;2022-12-18T03:57:20;49.30;;;18.60;;
34072;SDS011;20346;52.702;16.886;2022-12-18T04:00:06;54.85;;;19.57;;
34072;SDS011;20346;52.702;16.886;2022-12-18T04:02:55;57.33;;;19.75;;
34072;SDS011;20346;52.702;16.886;2022-12-18T04:05:43;52.25;;;19.05;;
34072;SDS011;20346;52.702;16.886;2022-12-18T04:08:30;63.60;;;19.98;;
34072;SDS011;20346;52.702;16.886;2022-12-18T04:11:15;60.10;;;20.27;;
34072;SDS011;20346;52.702;16.886;2022-12-18T04:13:59;57.60;;;20.90;;
34072;SDS011;20346;52.702;16.886;2022-12-18T04:16:45;51.10;;;18.00;;
34072;SDS011;20346;52.702;16.886;2022-12-18T04:19:29;56.90;;;21.05;;
34072;SDS011;20346;52.702;16.886;2022-12-18T04:22:14;51.08;;;19.23;;
34072;SDS011;20346;52.702;16.886;2022-12-18T04:24:59;55.33;;;19.32;;
34072;SDS011;20346;52.702;16.886;2022-12-18T04:27:44;51.47;;;19.53;;
34072;SDS011;20346;52.702;16.886;2022-12-18T04:30:29;52.57;;;20.27;;
34072;SDS011;20346;52.702;16.886;2022-12-18T04:33:17;39.37;;;15.97;;
34072;SDS011;20346;52.702;16.886;2022-12-18T04:36:02;60.40;;;22.07;;
34072;SDS011;20346;52.702;16.886;2022-12-18T04:38:47;53.45;;;21.07;;
34072;SDS011;20346;52.702;16.886;2022-12-18T04:41:32;42.60;;;16.17;;
34072;SDS011;20346;52.702;16.886;2022-12-18T04:44:17;51.60;;;20.20;;
34072;SDS011;20346;52.702;16.886;2022-12-18T04:47:02;47.70;;;19.17;;
34072;SDS011;20346;52.702;16.886;2022-12-18T04:49:47;51.23;;;19.80;;
34072;SDS011;20346;52.702;16.886;2022-12-18T04:52:32;60.30;;;20.17;;
34072;SDS011;20346;52.702;16.886;2022-12-18T04:55:17;55.00;;;20.90;;
34072;SDS011;20346;52.702;16.886;2022-12-18T04:58:02;35.53;;;14.67;;
34072;SDS011;20346;52.702;16.886;2022-12-18T05:00:47;56.33;;;20.73;;
34072;SDS011;20346;52.702;16.886;2022-12-18T05:03:33;59.03;;;18.63;;
34072;SDS011;20346;52.702;16.886;2022-12-18T05:09:02;43.33;;;17.37;;
34072;SDS011;20346;52.702;16.886;2022-12-18T05:11:47;60.33;;;20.57;;
34072;SDS011;20346;52.702;16.886;2022-12-18T05:14:32;59.37;;;21.20;;
34072;SDS011;20346;52.702;16.886;2022-12-18T05:17:17;58.23;;;20.10;;
34072;SDS011;20346;52.702;16.886;2022-12-18T05:20:02;58.63;;;21.47;;
34072;SDS011;20346;52.702;16.886;2022-12-18T05:22:48;46.98;;;19.45;;
34072;SDS011;20346;52.702;16.886;2022-12-18T05:25:33;46.13;;;18.15;;
34072;SDS011;20346;52.702;16.886;2022-12-18T05:28:18;46.43;;;18.50;;
34072;SDS011;20346;52.702;16.886;2022-12-18T05:31:04;47.73;;;18.65;;
34072;SDS011;20346;52.702;16.886;2022-12-18T05:33:49;51.70;;;18.57;;
34072;SDS011;20346;52.702;16.886;2022-12-18T05:36:34;41.90;;;17.95;;
34072;SDS011;20346;52.702;16.886;2022-12-18T05:39:19;47.20;;;18.10;;
34072;SDS011;20346;52.702;16.886;2022-12-18T05:42:04;37.75;;;13.05;;
34072;SDS011;20346;52.702;16.886;2022-12-18T05:44:49;42.55;;;17.60;;
34072;SDS011;20346;52.702;16.886;2022-12-18T05:47:34;48.70;;;17.87;;
34072;SDS011;20346;52.702;16.886;2022-12-18T05:50:19;47.48;;;17.62;;
34072;SDS011;20346;52.702;16.886;2022-12-18T05:53:04;46.08;;;17.20;;
34072;SDS011;20346;52.702;16.886;2022-12-18T05:55:49;47.38;;;18.37;;
34072;SDS011;20346;52.702;16.886;2022-12-18T05:58:34;45.85;;;18.23;;
34072;SDS011;20346;52.702;16.886;2022-12-18T06:01:24;41.33;;;14.45;;
34072;SDS011;20346;52.702;16.886;2022-12-18T06:04:10;42.90;;;16.87;;
34072;SDS011;20346;52.702;16.886;2022-12-18T06:06:55;49.70;;;18.00;;
34072;SDS011;20346;52.702;16.886;2022-12-18T06:09:40;53.60;;;19.10;;
34072;SDS011;20346;52.702;16.886;2022-12-18T06:12:25;56.50;;;20.62;;
34072;SDS011;20346;52.702;16.886;2022-12-18T06:15:10;56.93;;;20.13;;
34072;SDS011;20346;52.702;16.886;2022-12-18T06:17:55;55.70;;;21.40;;
34072;SDS011;20346;52.702;16.886;2022-12-18T06:20:40;54.30;;;20.03;;
34072;SDS011;20346;52.702;16.886;2022-12-18T06:23:25;53.90;;;19.80;;
34072;SDS011;20346;52.702;16.886;2022-12-18T06:26:11;52.23;;;20.40;;
34072;SDS011;20346;52.702;16.886;2022-12-18T06:28:57;56.37;;;19.92;;
34072;SDS011;20346;52.702;16.886;2022-12-18T06:31:42;54.73;;;19.30;;
34072;SDS011;20346;52.702;16.886;2022-12-18T06:34:27;39.90;;;13.97;;
34072;SDS011;20346;52.702;16.886;2022-12-18T06:37:14;49.40;;;18.35;;
34072;SDS011;20346;52.702;16.886;2022-12-18T06:39:59;49.33;;;20.00;;
34072;SDS011;20346;52.702;16.886;2022-12-18T06:42:44;57.30;;;19.65;;
34072;SDS011;20346;52.702;16.886;2022-12-18T06:45:29;57.73;;;21.20;;
34072;SDS011;20346;52.702;16.886;2022-12-18T06:48:14;62.43;;;22.15;;
34072;SDS011;20346;52.702;16.886;2022-12-18T06:50:59;71.20;;;24.60;;
34072;SDS011;20346;52.702;16.886;2022-12-18T06:53:44;66.80;;;24.13;;
34072;SDS011;20346;52.702;16.886;2022-12-18T06:56:29;46.73;;;16.13;;
34072;SDS011;20346;52.702;16.886;2022-12-18T06:59:14;61.42;;;21.97;;
34072;SDS011;20346;52.702;16.886;2022-12-18T07:01:59;59.70;;;21.25;;
34072;SDS011;20346;52.702;16.886;2022-12-18T07:04:44;59.73;;;22.23;;
34072;SDS011;20346;52.702;16.886;2022-12-18T07:07:29;56.88;;;21.30;;
34072;SDS011;20346;52.702;16.886;2022-12-18T07:10:14;51.50;;;18.92;;
34072;SDS011;20346;52.702;16.886;2022-12-18T07:12:59;45.10;;;17.30;;
34072;SDS011;20346;52.702;16.886;2022-12-18T07:15:44;46.53;;;17.87;;
34072;SDS011;20346;52.702;16.886;2022-12-18T07:18:29;56.68;;;18.17;;
34072;SDS011;20346;52.702;16.886;2022-12-18T07:21:15;56.37;;;17.95;;
34072;SDS011;20346;52.702;16.886;2022-12-18T07:24:02;52.20;;;18.90;;
34072;SDS011;20346;52.702;16.886;2022-12-18T07:29:33;43.23;;;16.62;;
34072;SDS011;20346;52.702;16.886;2022-12-18T07:32:18;52.23;;;17.77;;
34072;SDS011;20346;52.702;16.886;2022-12-18T07:35:03;40.40;;;16.27;;
34072;SDS011;20346;52.702;16.886;2022-12-18T07:37:48;51.90;;;18.57;;
34072;SDS011;20346;52.702;16.886;2022-12-18T07:40:33;55.20;;;18.77;;
34072;SDS011;20346;52.702;16.886;2022-12-18T07:43:18;38.35;;;14.13;;
34072;SDS011;20346;52.702;16.886;2022-12-18T07:46:04;53.67;;;18.80;;
34072;SDS011;20346;52.702;16.886;2022-12-18T07:48:49;62.67;;;21.00;;
34072;SDS011;20346;52.702;16.886;2022-12-18T07:51:34;55.35;;;20.15;;
34072;SDS011;20346;52.702;16.886;2022-12-18T07:54:19;66.72;;;23.15;;
34072;SDS011;20346;52.702;16.886;2022-12-18T07:57:04;47.03;;;17.67;;
34072;SDS011;20346;52.702;16.886;2022-12-18T07:59:49;58.07;;;20.70;;
34072;SDS011;20346;52.702;16.886;2022-12-18T08:02:34;60.40;;;21.00;;
34072;SDS011;20346;52.702;16.886;2022-12-18T08:05:19;45.47;;;16.20;;
34072;SDS011;20346;52.702;16.886;2022-12-18T08:08:04;67.87;;;22.35;;
34072;SDS011;20346;52.702;16.886;2022-12-18T08:10:49;63.47;;;22.17;;
34072;SDS011;20346;52.702;16.886;2022-12-18T08:13:34;61.60;;;22.40;;
34072;SDS011;20346;52.702;16.886;2022-12-18T08:16:19;65.50;;;21.85;;
34072;SDS011;20346;52.702;16.886;2022-12-18T08:19:05;64.65;;;22.45;;
34072;SDS011;20346;52.702;16.886;2022-12-18T08:21:50;65.63;;;21.83;;
34072;SDS011;20346;52.702;16.886;2022-12-18T08:24:34;64.20;;;21.05;;
34072;SDS011;20346;52.702;16.886;2022-12-18T08:27:19;69.32;;;23.62;;
34072;SDS011;20346;52.702;16.886;2022-12-18T08:30:05;72.17;;;22.73;;
34072;SDS011;20346;52.702;16.886;2022-12-18T08:32:51;76.00;;;23.55;;
34072;SDS011;20346;52.702;16.886;2022-12-18T08:35:37;63.20;;;21.97;;
34072;SDS011;20346;52.702;16.886;2022-12-18T08:38:22;57.67;;;20.57;;
34072;SDS011;20346;52.702;16.886;2022-12-18T08:41:09;65.42;;;21.33;;
34072;SDS011;20346;52.702;16.886;2022-12-18T08:43:56;67.15;;;21.48;;
34072;SDS011;20346;52.702;16.886;2022-12-18T08:46:59;57.35;;;21.17;;
34072;SDS011;20346;52.702;16.886;2022-12-18T08:49:44;66.80;;;23.23;;
34072;SDS011;20346;52.702;16.886;2022-12-18T08:52:31;65.70;;;22.35;;
34072;SDS011;20346;52.702;16.886;2022-12-18T08:55:16;105.12;;;38.23;;
34072;SDS011;20346;52.702;16.886;2022-12-18T08:58:01;117.23;;;42.67;;
34072;SDS011;20346;52.702;16.886;2022-12-18T09:00:46;109.20;;;44.65;;
34072;SDS011;20346;52.702;16.886;2022-12-18T09:03:31;83.27;;;27.07;;
34072;SDS011;20346;52.702;16.886;2022-12-18T09:06:17;91.70;;;30.90;;
34072;SDS011;20346;52.702;16.886;2022-12-18T09:09:04;151.37;;;58.48;;
34072;SDS011;20346;52.702;16.886;2022-12-18T09:11:49;200.33;;;82.37;;
34072;SDS011;20346;52.702;16.886;2022-12-18T09:14:35;118.80;;;48.80;;
34072;SDS011;20346;52.702;16.886;2022-12-18T09:17:20;56.53;;;19.82;;
34072;SDS011;20346;52.702;16.886;2022-12-18T09:20:05;91.47;;;37.85;;
34072;SDS011;20346;52.702;16.886;2022-12-18T09:22:51;70.32;;;26.52;;
34072;SDS011;20346;52.702;16.886;2022-12-18T09:25:36;151.90;;;61.50;;
34072;SDS011;20346;52.702;16.886;2022-12-18T09:28:22;162.40;;;67.60;;
34072;SDS011;20346;52.702;16.886;2022-12-18T09:31:08;123.00;;;52.93;;
34072;SDS011;20346;52.702;16.886;2022-12-18T09:33:54;183.45;;;83.75;;
34072;SDS011;20346;52.702;16.886;2022-12-18T09:36:40;98.52;;;41.48;;
34072;SDS011;20346;52.702;16.886;2022-12-18T09:39:25;73.47;;;30.05;;
34072;SDS011;20346;52.702;16.886;2022-12-18T09:42:17;67.23;;;25.07;;
34072;SDS011;20346;52.702;16.886;2022-12-18T09:45:04;66.55;;;24.25;;
34072;SDS011;20346;52.702;16.886;2022-12-18T09:47:52;65.97;;;28.40;;
34072;SDS011;20346;52.702;16.886;2022-12-18T09:50:38;66.28;;;24.67;;
34072;SDS011;20346;52.702;16.886;2022-12-18T09:56:18;58.15;;;20.62;;
34072;SDS011;20346;52.702;16.886;2022-12-18T09:59:06;58.55;;;19.48;;
34072;SDS011;20346;52.702;16.886;2022-12-18T10:02:14;56.77;;;19.90;;
34072;SDS011;20346;52.702;16.886;2022-12-18T10:05:10;49.95;;;18.27;;
34072;SDS011;20346;52.702;16.886;2022-12-18T10:08:12;52.48;;;18.98;;
34072;SDS011;20346;52.702;16.886;2022-12-18T10:14:28;51.25;;;19.73;;
34072;SDS011;20346;52.702;16.886;2022-12-18T10:17:26;54.27;;;19.80;;
34072;SDS011;20346;52.702;16.886;2022-12-18T10:20:43;59.75;;;19.98;;
34072;SDS011;20346;52.702;16.886;2022-12-18T10:23:32;58.68;;;19.62;;
34072;SDS011;20346;52.702;16.886;2022-12-18T10:26:18;52.62;;;19.70;;
34072;SDS011;20346;52.702;16.886;2022-12-18T10:29:08;60.10;;;19.85;;
34072;SDS011;20346;52.702;16.886;2022-12-18T10:31:57;57.33;;;22.52;;
34072;SDS011;20346;52.702;16.886;2022-12-18T10:34:44;54.95;;;21.10;;
34072;SDS011;20346;52.702;16.886;2022-12-18T10:37:31;52.75;;;21.87;;
34072;SDS011;20346;52.702;16.886;2022-12-18T10:40:16;51.63;;;20.93;;
34072;SDS011;20346;52.702;16.886;2022-12-18T10:43:05;58.98;;;20.82;;
34072;SDS011;20346;52.702;16.886;2022-12-18T10:46:01;64.03;;;22.65;;
34072;SDS011;20346;52.702;16.886;2022-12-18T10:48:54;64.25;;;23.10;;
34072;SDS011;20346;52.702;16.886;2022-12-18T10:51:40;64.27;;;23.15;;
34072;SDS011;20346;52.702;16.886;2022-12-18T10:54:25;73.23;;;25.70;;
34072;SDS011;20346;52.702;16.886;2022-12-18T11:03:28;70.45;;;26.87;;
34072;SDS011;20346;52.702;16.886;2022-12-18T11:06:22;81.08;;;26.52;;
34072;SDS011;20346;52.702;16.886;2022-12-18T11:09:22;70.65;;;25.25;;
34072;SDS011;20346;52.702;16.886;2022-12-18T11:12:19;61.58;;;25.90;;
34072;SDS011;20346;52.702;16.886;2022-12-18T11:15:03;57.23;;;22.52;;
34072;SDS011;20346;52.702;16.886;2022-12-18T11:17:49;57.20;;;22.98;;
34072;SDS011;20346;52.702;16.886;2022-12-18T11:20:36;51.50;;;21.15;;
34072;SDS011;20346;52.702;16.886;2022-12-18T11:23:21;51.28;;;21.05;;
34072;SDS011;20346;52.702;16.886;2022-12-18T11:26:07;56.98;;;21.65;;
34072;SDS011;20346;52.702;16.886;2022-12-18T11:28:52;44.33;;;20.35;;
34072;SDS011;20346;52.702;16.886;2022-12-18T11:38:33;58.68;;;22.15;;
34072;SDS011;20346;52.702;16.886;2022-12-18T11:41:31;54.18;;;22.52;;
34072;SDS011;20346;52.702;16.886;2022-12-18T11:48:01;49.10;;;22.70;;
34072;SDS011;20346;52.702;16.886;2022-12-18T11:50:55;50.43;;;21.90;;
34072;SDS011;20346;52.702;16.886;2022-12-18T11:53:42;46.23;;;21.35;;
34072;SDS011;20346;52.702;16.886;2022-12-18T11:56:36;43.55;;;21.20;;
34072;SDS011;20346;52.702;16.886;2022-12-18T12:09:14;51.98;;;24.00;;
34072;SDS011;20346;52.702;16.886;2022-12-18T12:12:27;58.85;;;23.98;;
34072;SDS011;20346;52.702;16.886;2022-12-18T12:15:36;55.95;;;24.30;;
34072;SDS011;20346;52.702;16.886;2022-12-18T12:18:50;53.08;;;23.38;;
34072;SDS011;20346;52.702;16.886;2022-12-18T12:22:07;51.23;;;23.18;;
34072;SDS011;20346;52.702;16.886;2022-12-18T12:28:02;63.17;;;25.02;;
34072;SDS011;20346;52.702;16.886;2022-12-18T12:34:16;56.77;;;23.95;;
34072;SDS011;20346;52.702;16.886;2022-12-18T12:40:22;47.43;;;22.32;;
34072;SDS011;20346;52.702;16.886;2022-12-18T12:43:32;50.20;;;23.22;;
34072;SDS011;20346;52.702;16.886;2022-12-18T12:46:26;43.90;;;20.97;;
34072;SDS011;20346;52.702;16.886;2022-12-18T12:49:18;49.60;;;23.27;;
34072;SDS011;20346;52.702;16.886;2022-12-18T12:52:22;39.58;;;17.42;;
34072;SDS011;20346;52.702;16.886;2022-12-18T12:55:24;57.80;;;25.60;;
34072;SDS011;20346;52.702;16.886;2022-12-18T12:58:14;53.85;;;24.70;;
34072;SDS011;20346;52.702;16.886;2022-12-18T13:04:52;48.15;;;21.65;;
34072;SDS011;20346;52.702;16.886;2022-12-18T13:10:47;51.18;;;22.15;;
34072;SDS011;20346;52.702;16.886;2022-12-18T13:13:47;43.48;;;21.45;;
34072;SDS011;20346;52.702;16.886;2022-12-18T13:16:34;53.92;;;22.82;;
34072;SDS011;20346;52.702;16.886;2022-12-18T13:19:23;53.63;;;25.93;;
34072;SDS011;20346;52.702;16.886;2022-12-18T13:22:25;48.80;;;24.43;;
34072;SDS011;20346;52.702;16.886;2022-12-18T13:25:35;46.55;;;22.62;;
34072;SDS011;20346;52.702;16.886;2022-12-18T13:28:23;49.95;;;24.32;;
34072;SDS011;20346;52.702;16.886;2022-12-18T13:34:29;54.73;;;24.12;;
34072;SDS011;20346;52.702;16.886;2022-12-18T13:37:35;57.90;;;25.05;;
34072;SDS011;20346;52.702;16.886;2022-12-18T13:52:25;48.15;;;21.52;;
34072;SDS011;20346;52.702;16.886;2022-12-18T13:55:16;48.92;;;22.25;;
34072;SDS011;20346;52.702;16.886;2022-12-18T13:58:04;47.65;;;21.10;;
34072;SDS011;20346;52.702;16.886;2022-12-18T14:00:50;42.90;;;21.80;;
34072;SDS011;20346;52.702;16.886;2022-12-18T14:03:35;50.35;;;22.42;;
34072;SDS011;20346;52.702;16.886;2022-12-18T14:06:20;46.95;;;22.17;;
34072;SDS011;20346;52.702;16.886;2022-12-18T14:09:05;50.73;;;22.50;;
34072;SDS011;20346;52.702;16.886;2022-12-18T14:11:49;47.25;;;21.80;;
34072;SDS011;20346;52.702;16.886;2022-12-18T14:14:35;44.83;;;21.80;;
34072;SDS011;20346;52.702;16.886;2022-12-18T14:17:20;44.03;;;22.10;;
34072;SDS011;20346;52.702;16.886;2022-12-18T14:20:12;39.18;;;18.67;;
34072;SDS011;20346;52.702;16.886;2022-12-18T14:22:58;43.90;;;19.35;;
34072;SDS011;20346;52.702;16.886;2022-12-18T14:25:45;38.30;;;19.12;;
34072;SDS011;20346;52.702;16.886;2022-12-18T14:28:31;40.25;;;18.35;;
34072;SDS011;20346;52.702;16.886;2022-12-18T14:31:23;40.12;;;19.32;;
34072;SDS011;20346;52.702;16.886;2022-12-18T14:34:18;40.83;;;18.77;;
34072;SDS011;20346;52.702;16.886;2022-12-18T14:37:00;38.83;;;18.10;;
34072;SDS011;20346;52.702;16.886;2022-12-18T14:39:55;43.23;;;19.57;;
34072;SDS011;20346;52.702;16.886;2022-12-18T14:42:46;41.05;;;18.50;;
34072;SDS011;20346;52.702;16.886;2022-12-18T14:45:38;44.00;;;18.85;;
34072;SDS011;20346;52.702;16.886;2022-12-18T14:48:36;41.75;;;20.00;;
34072;SDS011;20346;52.702;16.886;2022-12-18T14:51:29;40.95;;;19.65;;
34072;SDS011;20346;52.702;16.886;2022-12-18T14:54:18;41.53;;;19.35;;
34072;SDS011;20346;52.702;16.886;2022-12-18T14:57:05;40.60;;;19.40;;
34072;SDS011;20346;52.702;16.886;2022-12-18T15:00:06;44.13;;;19.77;;
34072;SDS011;20346;52.702;16.886;2022-12-18T15:03:00;43.28;;;21.07;;
34072;SDS011;20346;52.702;16.886;2022-12-18T15:05:45;39.58;;;20.02;;
34072;SDS011;20346;52.702;16.886;2022-12-18T15:08:34;42.88;;;19.98;;
34072;SDS011;20346;52.702;16.886;2022-12-18T15:11:44;45.03;;;20.92;;
34072;SDS011;20346;52.702;16.886;2022-12-18T15:17:24;58.40;;;24.57;;
34072;SDS011;20346;52.702;16.886;2022-12-18T15:20:09;61.50;;;26.65;;
34072;SDS011;20346;52.702;16.886;2022-12-18T15:25:39;61.75;;;28.20;;
34072;SDS011;20346;52.702;16.886;2022-12-18T15:28:29;55.55;;;25.97;;
34072;SDS011;20346;52.702;16.886;2022-12-18T15:34:18;61.40;;;26.43;;
34072;SDS011;20346;52.702;16.886;2022-12-18T15:37:06;69.17;;;29.80;;
34072;SDS011;20346;52.702;16.886;2022-12-18T15:39:51;70.03;;;28.92;;
34072;SDS011;20346;52.702;16.886;2022-12-18T15:42:36;74.32;;;30.55;;
34072;SDS011;20346;52.702;16.886;2022-12-18T15:45:40;64.60;;;29.15;;
34072;SDS011;20346;52.702;16.886;2022-12-18T15:48:25;76.37;;;31.30;;
34072;SDS011;20346;52.702;16.886;2022-12-18T15:54:13;70.08;;;30.57;;
34072;SDS011;20346;52.702;16.886;2022-12-18T15:56:57;67.67;;;31.02;;
34072;SDS011;20346;52.702;16.886;2022-12-18T16:00:00;70.85;;;31.52;;
34072;SDS011;20346;52.702;16.886;2022-12-18T16:02:45;75.13;;;31.43;;
34072;SDS011;20346;52.702;16.886;2022-12-18T16:05:31;68.97;;;29.00;;
34072;SDS011;20346;52.702;16.886;2022-12-18T16:08:16;60.85;;;28.07;;
34072;SDS011;20346;52.702;16.886;2022-12-18T16:11:01;64.50;;;28.83;;
34072;SDS011;20346;52.702;16.886;2022-12-18T16:13:46;66.80;;;27.73;;
34072;SDS011;20346;52.702;16.886;2022-12-18T16:16:31;42.23;;;20.30;;
34072;SDS011;20346;52.702;16.886;2022-12-18T16:19:16;54.63;;;24.30;;
34072;SDS011;20346;52.702;16.886;2022-12-18T16:22:03;65.83;;;26.80;;
34072;SDS011;20346;52.702;16.886;2022-12-18T16:24:49;65.62;;;26.07;;
34072;SDS011;20346;52.702;16.886;2022-12-18T16:27:35;64.15;;;26.82;;
34072;SDS011;20346;52.702;16.886;2022-12-18T16:30:21;61.13;;;26.27;;
34072;SDS011;20346;52.702;16.886;2022-12-18T16:33:11;59.13;;;26.15;;
34072;SDS011;20346;52.702;16.886;2022-12-18T16:35:56;56.77;;;24.43;;
34072;SDS011;20346;52.702;16.886;2022-12-18T16:38:41;53.45;;;23.92;;
34072;SDS011;20346;52.702;16.886;2022-12-18T16:41:27;54.43;;;24.97;;
34072;SDS011;20346;52.702;16.886;2022-12-18T16:44:15;56.95;;;24.10;;
34072;SDS011;20346;52.702;16.886;2022-12-18T16:47:00;57.27;;;24.15;;
34072;SDS011;20346;52.702;16.886;2022-12-18T16:49:45;57.83;;;25.55;;
34072;SDS011;20346;52.702;16.886;2022-12-18T16:52:32;54.95;;;25.35;;
34072;SDS011;20346;52.702;16.886;2022-12-18T16:55:20;66.65;;;27.87;;
34072;SDS011;20346;52.702;16.886;2022-12-18T16:58:05;61.18;;;25.25;;
34072;SDS011;20346;52.702;16.886;2022-12-18T17:00:50;62.98;;;28.15;;
34072;SDS011;20346;52.702;16.886;2022-12-18T17:03:35;62.77;;;26.73;;
34072;SDS011;20346;52.702;16.886;2022-12-18T17:06:25;65.87;;;25.60;;
34072;SDS011;20346;52.702;16.886;2022-12-18T17:09:09;55.88;;;24.80;;
34072;SDS011;20346;52.702;16.886;2022-12-18T17:11:59;52.67;;;23.38;;
34072;SDS011;20346;52.702;16.886;2022-12-18T17:14:43;59.00;;;24.67;;
34072;SDS011;20346;52.702;16.886;2022-12-18T17:17:28;56.90;;;25.67;;
34072;SDS011;20346;52.702;16.886;2022-12-18T17:20:13;63.60;;;26.03;;
34072;SDS011;20346;52.702;16.886;2022-12-18T17:22:59;59.55;;;25.95;;
34072;SDS011;20346;52.702;16.886;2022-12-18T17:25:44;53.23;;;25.25;;
34072;SDS011;20346;52.702;16.886;2022-12-18T17:28:29;63.97;;;26.03;;
34072;SDS011;20346;52.702;16.886;2022-12-18T17:31:19;96.63;;;36.03;;
34072;SDS011;20346;52.702;16.886;2022-12-18T17:34:05;116.22;;;45.43;;
34072;SDS011;20346;52.702;16.886;2022-12-18T17:36:50;72.87;;;30.50;;
34072;SDS011;20346;52.702;16.886;2022-12-18T17:39:35;78.40;;;33.53;;
34072;SDS011;20346;52.702;16.886;2022-12-18T17:42:21;72.78;;;30.60;;
34072;SDS011;20346;52.702;16.886;2022-12-18T17:45:06;66.63;;;27.77;;
34072;SDS011;20346;52.702;16.886;2022-12-18T17:50:37;70.03;;;26.97;;
34072;SDS011;20346;52.702;16.886;2022-12-18T17:53:22;77.15;;;33.23;;
34072;SDS011;20346;52.702;16.886;2022-12-18T17:56:09;93.58;;;36.93;;